Time;durP1;ratioP1;P1;durP2;ratioP2;P2;SDS_P1;SDS_P2;PMS_P1;PMS_P2;Temp;Humidity;BMP_temperature;BMP_pressure;BME280_temperature;BME280_humidity;BME280_pressure;Samples;Min_cycle;Max_cycle;Signal;HPM_P1;HPM_P2
2022/04/02 00:00:50;;;;;;;4.15;2.75;;;2.80;99.90;;;;;;5168305;27;20043;-62
2022/04/02 00:03:16;;;;;;;5.10;2.67;;;2.80;99.90;;;;;;5149842;27;20054;-62
2022/04/02 00:05:42;;;;;;;5.78;2.80;;;2.80;99.90;;;;;;5168124;27;20048;-62
2022/04/02 00:08:07;;;;;;;5.70;3.28;;;2.90;99.90;;;;;;5148967;27;20047;-62
2022/04/02 00:10:33;;;;;;;5.82;3.33;;;2.70;99.90;;;;;;5148827;27;20047;-62
2022/04/02 00:12:59;;;;;;;5.15;2.85;;;2.70;99.90;;;;;;5148743;27;20042;-62
2022/04/02 00:15:24;;;;;;;4.53;3.38;;;2.60;99.90;;;;;;5167276;27;20051;-62
2022/04/02 00:17:50;;;;;;;4.88;2.90;;;2.60;99.90;;;;;;5148686;27;20039;-62
2022/04/02 00:20:17;;;;;;;4.78;2.72;;;2.60;99.90;;;;;;5149309;27;20050;-62
2022/04/02 00:23:35;;;;;;;6.63;3.00;;;2.60;99.90;;;;;;5168026;27;20099;-62
2022/04/02 00:25:29;;;;;;;4.85;2.65;;;2.40;99.90;;;;;;5148261;27;20258;-62
2022/04/02 00:27:55;;;;;;;5.45;2.72;;;2.30;99.90;;;;;;5148603;27;20047;-62
2022/04/02 00:30:21;;;;;;;6.03;2.80;;;2.40;99.90;;;;;;5141066;27;20055;-62
2022/04/02 00:32:47;;;;;;;4.35;2.85;;;2.40;99.90;;;;;;5145437;27;20047;-62
2022/04/02 00:35:13;;;;;;;3.97;2.80;;;2.40;99.90;;;;;;5146985;27;20042;-62
2022/04/02 00:37:39;;;;;;;6.38;3.22;;;2.40;99.90;;;;;;5128202;27;20281;-62
2022/04/02 00:40:05;;;;;;;4.93;2.67;;;2.30;99.90;;;;;;5145601;27;20476;-62
2022/04/02 00:42:31;;;;;;;5.90;3.05;;;2.30;99.90;;;;;;5127752;27;20486;-62
2022/04/02 00:44:56;;;;;;;5.07;3.00;;;2.30;99.90;;;;;;5127405;27;20035;-62
2022/04/02 00:47:22;;;;;;;4.20;2.50;;;2.30;99.90;;;;;;5146547;27;20395;-62
2022/04/02 00:49:51;;;;;;;6.43;2.97;;;2.30;99.90;;;;;;5127613;27;20161;-62
2022/04/02 00:52:18;;;;;;;4.57;2.45;;;2.30;99.90;;;;;;5127503;27;20098;-62
2022/04/02 00:54:44;;;;;;;6.72;2.78;;;2.20;99.90;;;;;;5145791;27;20043;-62
2022/04/02 00:57:09;;;;;;;7.63;3.03;;;2.20;99.90;;;;;;5145648;27;20054;-62
2022/04/02 00:59:35;;;;;;;4.78;3.08;;;2.10;99.90;;;;;;5127648;27;20054;-62
2022/04/02 01:02:01;;;;;;;4.82;2.70;;;2.10;99.90;;;;;;5146348;27;20058;-62
2022/04/02 01:04:27;;;;;;;5.78;2.97;;;2.10;99.90;;;;;;5145102;27;20051;-62
2022/04/02 01:06:53;;;;;;;4.50;2.83;;;2.20;99.90;;;;;;5145626;27;20070;-62
2022/04/02 01:09:19;;;;;;;7.00;2.60;;;2.20;99.90;;;;;;5127867;27;20134;-62
2022/04/02 01:11:45;;;;;;;5.07;2.55;;;2.20;99.90;;;;;;5127075;27;20078;-62
2022/04/02 01:14:11;;;;;;;5.03;2.95;;;2.10;99.90;;;;;;5145244;27;20069;-62
2022/04/02 01:16:38;;;;;;;4.32;2.47;;;2.20;99.90;;;;;;5127178;27;20412;-62
2022/04/02 01:19:05;;;;;;;7.10;2.38;;;2.30;99.90;;;;;;5126932;27;20043;-62
2022/04/02 01:21:31;;;;;;;6.93;3.05;;;2.40;99.90;;;;;;5127519;27;20058;-62
2022/04/02 01:23:58;;;;;;;5.40;2.55;;;2.30;99.90;;;;;;5126730;27;20055;-62
2022/04/02 01:26:25;;;;;;;5.55;3.05;;;2.30;99.90;;;;;;5126995;27;20051;-62
2022/04/02 01:28:54;;;;;;;6.82;2.67;;;2.20;99.90;;;;;;5126638;27;20050;-62
2022/04/02 01:31:21;;;;;;;7.32;2.72;;;2.20;99.90;;;;;;5126672;28;20073;-62
2022/04/02 01:33:49;;;;;;;4.82;2.90;;;2.30;99.90;;;;;;5126059;27;20039;-62
2022/04/02 01:36:15;;;;;;;6.88;2.90;;;2.20;99.90;;;;;;5145308;27;20057;-62
2022/04/02 01:38:41;;;;;;;3.80;2.50;;;2.20;99.90;;;;;;5126089;27;20039;-62
2022/04/02 01:41:07;;;;;;;5.18;2.63;;;2.20;99.90;;;;;;5126818;28;20043;-62
2022/04/02 01:43:33;;;;;;;4.70;2.58;;;2.20;99.90;;;;;;5126531;28;20047;-62
2022/04/02 01:46:01;;;;;;;3.92;2.83;;;2.20;99.90;;;;;;5126547;28;20103;-62
2022/04/02 01:48:27;;;;;;;6.18;3.15;;;2.20;99.90;;;;;;5145963;27;20051;-62
2022/04/02 01:50:53;;;;;;;5.22;2.80;;;2.20;99.90;;;;;;5127709;28;20047;-62
2022/04/02 01:53:20;;;;;;;5.18;2.83;;;2.20;99.90;;;;;;5127976;28;20334;-62
2022/04/02 01:55:47;;;;;;;5.68;3.05;;;2.20;99.90;;;;;;5145114;28;20042;-62
2022/04/02 01:58:13;;;;;;;5.30;2.90;;;2.20;99.90;;;;;;5126434;28;20086;-62
2022/04/02 02:00:38;;;;;;;5.65;2.88;;;2.20;99.90;;;;;;5109515;28;20066;-62
2022/04/02 02:03:06;;;;;;;6.93;3.47;;;2.20;99.90;;;;;;5126952;28;20049;-62
2022/04/02 02:05:33;;;;;;;8.00;3.40;;;2.30;99.90;;;;;;5125909;28;20051;-62
2022/04/02 02:07:59;;;;;;;5.78;3.20;;;2.30;99.90;;;;;;5126454;28;20058;-62
2022/04/02 02:10:25;;;;;;;3.97;2.78;;;2.30;99.90;;;;;;5144869;28;20043;-62
2022/04/02 02:12:51;;;;;;;7.10;3.13;;;2.20;99.90;;;;;;5146405;27;20104;-62
2022/04/02 02:15:17;;;;;;;4.45;3.03;;;2.20;99.90;;;;;;5130493;27;20487;-62
2022/04/02 02:17:47;;;;;;;7.70;3.70;;;2.10;99.90;;;;;;5149004;27;20046;-62
2022/04/02 02:20:15;;;;;;;5.15;2.88;;;2.10;99.90;;;;;;5148278;27;20047;-62
2022/04/02 02:22:41;;;;;;;6.55;3.33;;;2.10;99.90;;;;;;5130034;27;20055;-62
2022/04/02 02:25:09;;;;;;;6.90;3.30;;;2.00;99.90;;;;;;5130456;27;20054;-62
2022/04/02 02:27:35;;;;;;;5.00;3.08;;;2.00;99.90;;;;;;5130421;27;20039;-62
2022/04/02 02:30:06;;;;;;;5.95;3.40;;;2.10;99.90;;;;;;5129910;27;20103;-62
2022/04/02 02:32:36;;;;;;;;;;;2.00;99.90;;;;;;5131017;27;20054;-62
2022/04/02 02:38:06;;;;;;;6.55;3.35;;;1.80;99.90;;;;;;5144175;27;19927;-62
2022/04/02 02:40:33;;;;;;;6.15;3.03;;;1.70;99.90;;;;;;5121199;27;20051;-62
2022/04/02 02:42:59;;;;;;;6.97;3.63;;;1.60;99.90;;;;;;5147994;27;20042;-62
2022/04/02 02:45:24;;;;;;;7.13;3.35;;;1.70;99.90;;;;;;5129965;27;20039;-62
2022/04/02 02:47:51;;;;;;;5.28;2.92;;;1.70;99.90;;;;;;5130450;27;20062;-62
2022/04/02 02:50:17;;;;;;;6.63;3.25;;;1.80;99.90;;;;;;5148892;27;20112;-62
2022/04/02 02:52:43;;;;;;;6.10;3.58;;;1.80;99.90;;;;;;5130756;27;20074;-62
2022/04/02 02:55:09;;;;;;;4.78;3.00;;;1.80;99.90;;;;;;5149672;27;20035;-62
2022/04/02 02:57:42;;;;;;;8.70;3.50;;;1.80;99.90;;;;;;5148703;27;20047;-62
2022/04/02 03:00:10;;;;;;;5.00;2.97;;;1.80;99.90;;;;;;5113941;27;20051;-62
2022/04/02 03:02:39;;;;;;;6.38;3.83;;;1.70;99.90;;;;;;5129178;27;20043;-62
2022/04/02 03:05:13;;;;;;;6.50;3.30;;;1.70;99.90;;;;;;5129854;27;20051;-62
2022/04/02 03:07:48;;;;;;;7.72;3.22;;;1.80;99.90;;;;;;5149177;27;20051;-62
2022/04/02 03:10:22;;;;;;;7.88;3.47;;;1.80;99.90;;;;;;5130829;27;20047;-62
2022/04/02 03:12:48;;;;;;;5.80;3.58;;;1.80;99.90;;;;;;5147873;27;20043;-62
2022/04/02 03:15:15;;;;;;;8.05;3.13;;;1.70;99.90;;;;;;5129189;27;20043;-62
2022/04/02 03:17:43;;;;;;;6.78;3.25;;;1.70;99.90;;;;;;5134348;27;20100;-62
2022/04/02 03:20:11;;;;;;;6.65;3.10;;;1.60;99.90;;;;;;5129378;27;20241;-62
2022/04/02 03:22:43;;;;;;;6.00;3.40;;;1.60;99.90;;;;;;5133812;27;20043;-62
2022/04/02 03:25:13;;;;;;;4.82;3.10;;;1.70;99.90;;;;;;5128799;27;20051;-62
2022/04/02 03:27:39;;;;;;;5.93;3.53;;;1.70;99.90;;;;;;5129403;27;20051;-62
2022/04/02 03:30:08;;;;;;;4.70;3.38;;;1.70;99.90;;;;;;5128812;27;20059;-62
2022/04/02 03:32:35;;;;;;;10.00;3.90;;;1.70;99.90;;;;;;5128648;27;20462;-62
2022/04/02 03:35:02;;;;;;;4.90;2.95;;;1.70;99.90;;;;;;5128821;27;20054;-62
2022/04/02 03:37:28;;;;;;;4.20;2.83;;;1.80;99.90;;;;;;5147498;27;20106;-62
2022/04/02 03:39:54;;;;;;;6.88;3.40;;;1.80;99.90;;;;;;5148208;27;20081;-62
2022/04/02 03:42:20;;;;;;;7.55;3.17;;;1.70;99.90;;;;;;5128472;27;20043;-62
2022/04/02 03:44:47;;;;;;;6.35;3.40;;;1.80;99.90;;;;;;5128914;27;20039;-62
2022/04/02 03:47:12;;;;;;;4.38;3.00;;;1.80;99.90;;;;;;5128754;27;20089;-62
2022/04/02 03:49:46;;;;;;;7.05;3.10;;;1.70;99.90;;;;;;5147975;27;20035;-62
2022/04/02 03:52:13;;;;;;;6.68;3.15;;;1.70;99.90;;;;;;5129180;27;20047;-62
2022/04/02 03:54:39;;;;;;;5.57;3.17;;;1.80;99.90;;;;;;5148499;27;20168;-62
2022/04/02 03:57:06;;;;;;;6.28;3.15;;;1.70;99.90;;;;;;5129367;27;20073;-62
2022/04/02 03:59:32;;;;;;;7.93;3.03;;;1.70;99.90;;;;;;5128124;27;20051;-62
2022/04/02 04:01:59;;;;;;;7.20;2.92;;;1.70;99.90;;;;;;5128987;27;20444;-62
2022/04/02 04:04:26;;;;;;;4.97;3.05;;;1.70;99.90;;;;;;5128608;27;20051;-62
2022/04/02 04:06:52;;;;;;;4.97;3.10;;;1.60;99.90;;;;;;5129607;27;20039;-62
2022/04/02 04:09:19;;;;;;;7.32;2.80;;;1.60;99.90;;;;;;5129722;27;20043;-62
2022/04/02 04:11:45;;;;;;;6.35;3.25;;;1.60;99.90;;;;;;5147833;27;20039;-62
2022/04/02 04:14:12;;;;;;;5.72;2.85;;;1.60;99.90;;;;;;5147899;27;20043;-62
2022/04/02 04:16:37;;;;;;;6.15;3.17;;;1.60;99.90;;;;;;5129636;27;20107;-62
2022/04/02 04:19:03;;;;;;;7.72;3.63;;;1.50;99.90;;;;;;5146747;27;20047;-62
2022/04/02 04:21:29;;;;;;;5.47;3.35;;;1.50;99.90;;;;;;5127778;27;20072;-62
2022/04/02 04:23:54;;;;;;;6.57;3.13;;;1.50;99.90;;;;;;5146184;27;20048;-62
2022/04/02 04:26:20;;;;;;;9.55;3.22;;;1.50;99.90;;;;;;5127739;27;20054;-62
2022/04/02 04:28:46;;;;;;;5.70;3.20;;;1.50;99.90;;;;;;5128028;27;20122;-62
2022/04/02 04:31:17;;;;;;;5.32;2.85;;;1.60;99.90;;;;;;5127817;27;20078;-62
2022/04/02 04:33:43;;;;;;;6.80;3.17;;;1.50;99.90;;;;;;5145461;27;20047;-62
2022/04/02 04:36:10;;;;;;;6.88;3.33;;;1.50;99.90;;;;;;5130829;27;20051;-62
2022/04/02 04:38:35;;;;;;;4.85;3.15;;;1.50;99.90;;;;;;5136059;27;20043;-62
2022/04/02 04:41:02;;;;;;;6.45;3.80;;;1.60;99.90;;;;;;5127486;27;20110;-62
2022/04/02 04:43:28;;;;;;;7.47;3.25;;;1.50;99.90;;;;;;5145761;27;20089;-61
2022/04/02 04:45:53;;;;;;;8.50;2.90;;;1.60;99.90;;;;;;5127469;27;20082;-62
2022/04/02 04:48:20;;;;;;;6.28;3.30;;;1.60;99.90;;;;;;5127722;27;20050;-62
2022/04/02 04:50:47;;;;;;;5.70;2.90;;;1.60;99.90;;;;;;5127472;27;20180;-62
2022/04/02 04:53:13;;;;;;;4.90;2.50;;;1.60;99.90;;;;;;5145753;27;20049;-62
2022/04/02 04:55:39;;;;;;;4.75;2.78;;;1.60;99.90;;;;;;5146105;27;20046;-62
2022/04/02 04:58:05;;;;;;;9.98;3.72;;;1.60;99.90;;;;;;5127439;27;20051;-62
2022/04/02 05:00:31;;;;;;;8.15;3.15;;;1.60;99.90;;;;;;5145318;27;20050;-62
2022/04/02 05:02:58;;;;;;;5.88;3.00;;;1.50;99.90;;;;;;5128148;27;20051;-62
2022/04/02 05:05:26;;;;;;;7.60;3.90;;;1.50;99.90;;;;;;5127371;27;20394;-62
2022/04/02 05:07:53;;;;;;;6.22;2.97;;;1.60;99.90;;;;;;5145377;27;20065;-62
2022/04/02 05:10:19;;;;;;;6.32;3.10;;;1.50;99.90;;;;;;5130373;27;20043;-62
2022/04/02 05:12:44;;;;;;;6.68;2.97;;;1.50;99.90;;;;;;5110055;27;20051;-62
2022/04/02 05:15:10;;;;;;;6.00;3.33;;;1.60;99.90;;;;;;5126732;27;20047;-62
2022/04/02 05:17:37;;;;;;;7.95;3.67;;;1.50;99.90;;;;;;5127279;27;20042;-62
2022/04/02 05:20:04;;;;;;;5.97;3.28;;;1.60;99.90;;;;;;5145063;27;20051;-62
2022/04/02 05:22:30;;;;;;;6.10;3.22;;;1.60;99.90;;;;;;5145293;27;20059;-62
2022/04/02 05:24:56;;;;;;;8.65;3.65;;;1.50;99.90;;;;;;5127603;28;20046;-62
2022/04/02 05:27:21;;;;;;;9.43;3.92;;;1.60;99.90;;;;;;5145374;27;20047;-62
2022/04/02 05:29:47;;;;;;;7.28;3.72;;;1.70;99.90;;;;;;5147414;27;20079;-62
2022/04/02 05:32:13;;;;;;;7.25;3.75;;;1.70;99.90;;;;;;5165902;27;20054;-62
2022/04/02 05:34:38;;;;;;;5.93;3.53;;;1.80;99.90;;;;;;5133320;27;20051;-62
2022/04/02 05:37:04;;;;;;;9.38;4.03;;;1.80;99.90;;;;;;5132177;27;20046;-62
2022/04/02 05:39:30;;;;;;;8.48;3.60;;;1.80;99.90;;;;;;5128420;27;20047;-62
2022/04/02 05:41:57;;;;;;;7.60;3.70;;;1.80;99.90;;;;;;5166088;27;20038;-61
2022/04/02 05:44:24;;;;;;;6.57;3.88;;;1.70;99.90;;;;;;5146040;27;20061;-62
2022/04/02 05:46:50;;;;;;;6.95;3.97;;;1.90;99.90;;;;;;5146451;27;20051;-62
2022/04/02 05:49:17;;;;;;;8.57;4.00;;;1.90;99.90;;;;;;5165170;27;20039;-62
2022/04/02 05:51:43;;;;;;;6.25;3.97;;;2.10;99.90;;;;;;5147309;27;20054;-62
2022/04/02 05:54:08;;;;;;;9.40;3.95;;;2.00;99.90;;;;;;5146924;27;20087;-63
2022/04/02 05:56:35;;;;;;;11.75;3.80;;;2.10;99.90;;;;;;5166100;27;20703;-64
2022/04/02 05:59:02;;;;;;;8.35;4.05;;;2.10;99.90;;;;;;5147123;27;20047;-64
2022/04/02 06:01:28;;;;;;;9.60;3.40;;;2.10;99.90;;;;;;5144539;27;20054;-64
2022/04/02 06:03:54;;;;;;;7.80;3.60;;;2.10;99.90;;;;;;5164656;27;20090;-64
2022/04/02 06:06:20;;;;;;;7.00;3.83;;;2.10;99.90;;;;;;5126878;27;20054;-63
2022/04/02 06:08:46;;;;;;;9.52;3.80;;;2.00;99.90;;;;;;5141677;27;20047;-63
2022/04/02 06:11:11;;;;;;;7.03;3.97;;;2.10;99.90;;;;;;5165302;27;20043;-64
2022/04/02 06:13:37;;;;;;;8.02;3.78;;;2.10;99.90;;;;;;5164577;27;20031;-64
2022/04/02 06:16:03;;;;;;;8.35;4.47;;;2.10;99.90;;;;;;5164380;27;20106;-64
2022/04/02 06:18:29;;;;;;;9.27;4.70;;;2.10;99.90;;;;;;5146039;27;20123;-64
2022/04/02 06:20:55;;;;;;;7.35;4.18;;;2.10;99.90;;;;;;5145595;27;20505;-64
2022/04/02 06:23:22;;;;;;;11.10;4.15;;;2.10;99.90;;;;;;5143011;27;20047;-65
2022/04/02 06:25:49;;;;;;;7.03;3.90;;;2.10;99.90;;;;;;5164731;27;20125;-65
2022/04/02 06:28:14;;;;;;;6.88;3.80;;;2.10;99.90;;;;;;5146598;27;20046;-65
2022/04/02 06:30:40;;;;;;;6.53;4.15;;;2.10;99.90;;;;;;5166135;27;20047;-65
2022/04/02 06:33:06;;;;;;;8.20;3.75;;;2.20;99.90;;;;;;5145022;27;20618;-65
2022/04/02 06:35:31;;;;;;;7.30;3.70;;;2.20;99.90;;;;;;5133737;27;20061;-66
2022/04/02 06:37:57;;;;;;;6.55;3.42;;;2.30;99.90;;;;;;5162013;27;20120;-64
2022/04/02 06:40:25;;;;;;;7.38;3.97;;;2.30;99.90;;;;;;5125971;28;20050;-63
2022/04/02 06:42:51;;;;;;;8.80;4.05;;;2.60;99.90;;;;;;5165597;27;20043;-63
2022/04/02 06:45:18;;;;;;;9.27;5.15;;;2.70;99.90;;;;;;5165508;27;20067;-65
2022/04/02 06:47:44;;;;;;;8.70;4.07;;;2.70;99.90;;;;;;5147360;27;20051;-65
2022/04/02 06:50:13;;;;;;;10.30;4.20;;;3.00;99.90;;;;;;5166441;27;20053;-66
2022/04/02 06:52:39;;;;;;;12.07;4.30;;;2.90;99.90;;;;;;5146908;27;20066;-63
2022/04/02 06:55:11;;;;;;;8.65;4.47;;;2.80;99.90;;;;;;5146934;27;20053;-63
2022/04/02 06:57:41;;;;;;;8.60;4.15;;;2.90;99.90;;;;;;5147267;27;20047;-63
2022/04/02 07:00:08;;;;;;;10.40;5.82;;;3.10;99.90;;;;;;5145676;27;20035;-63
2022/04/02 07:02:33;;;;;;;8.45;4.68;;;3.20;99.90;;;;;;5150008;27;20074;-63
2022/04/02 07:04:59;;;;;;;8.90;4.53;;;3.30;99.90;;;;;;5142641;27;20043;-63
2022/04/02 07:07:25;;;;;;;8.27;4.45;;;3.30;99.90;;;;;;5166210;27;20043;-63
2022/04/02 07:09:50;;;;;;;8.30;3.88;;;3.30;99.90;;;;;;5161579;27;20098;-63
2022/04/02 07:12:16;;;;;;;7.65;3.97;;;3.50;99.90;;;;;;5150167;27;20054;-63
2022/04/02 07:14:42;;;;;;;7.13;3.92;;;3.60;99.90;;;;;;5168381;27;20039;-63
2022/04/02 07:17:07;;;;;;;7.07;3.83;;;3.50;99.90;;;;;;5149431;27;20058;-67
2022/04/02 07:19:36;;;;;;;8.05;4.00;;;3.60;99.90;;;;;;5132443;27;20087;-69
2022/04/02 07:22:06;;;;;;;9.07;3.95;;;3.60;99.90;;;;;;5149098;27;20048;-68
2022/04/02 07:24:32;;;;;;;6.35;3.25;;;3.70;99.90;;;;;;5136151;27;20035;-70
2022/04/02 07:26:58;;;;;;;9.00;3.70;;;3.80;99.90;;;;;;5148586;27;20053;-70
2022/04/02 07:29:26;;;;;;;6.22;3.67;;;3.80;99.90;;;;;;5145075;27;20038;-69
2022/04/02 07:31:52;;;;;;;7.88;3.40;;;3.90;99.90;;;;;;5130808;27;20051;-69
2022/04/02 07:34:18;;;;;;;5.45;3.40;;;4.00;99.90;;;;;;5148488;27;20042;-69
2022/04/02 07:36:56;;;;;;;6.93;3.60;;;4.10;99.90;;;;;;5132361;27;20627;-69
2022/04/02 07:40:00;;;;;;;6.75;3.95;;;4.10;99.90;;;;;;5149608;27;20110;-75
2022/04/02 07:42:57;;;;;;;6.30;3.40;;;4.20;99.90;;;;;;5148533;27;20046;-74
2022/04/02 07:45:45;;;;;;;9.80;4.57;;;4.30;99.90;;;;;;5107887;27;20054;-71
2022/04/02 07:48:11;;;;;;;7.50;4.25;;;4.30;99.90;;;;;;5148959;27;20053;-72
2022/04/02 07:50:45;;;;;;;12.25;4.60;;;4.50;99.90;;;;;;5168447;27;20053;-71
2022/04/02 07:53:24;;;;;;;6.53;3.17;;;4.50;99.90;;;;;;5148899;27;20482;-71
2022/04/02 07:55:56;;;;;;;7.45;4.10;;;4.70;99.90;;;;;;5149041;27;20047;-71
2022/04/02 07:58:31;;;;;;;5.65;3.78;;;4.70;99.90;;;;;;5148903;27;20041;-71
2022/04/02 08:01:00;;;;;;;7.78;3.55;;;4.90;99.90;;;;;;5160335;27;20050;-71
2022/04/02 08:03:28;;;;;;;6.15;3.20;;;4.90;99.90;;;;;;5148969;27;20038;-71
2022/04/02 08:05:55;;;;;;;5.95;3.00;;;5.10;99.90;;;;;;5148912;27;20046;-71
2022/04/02 08:08:26;;;;;;;5.32;3.72;;;5.20;99.90;;;;;;5131753;27;20071;-71
2022/04/02 08:10:53;;;;;;;8.15;3.40;;;5.10;99.90;;;;;;5147926;27;20057;-71
2022/04/02 08:13:20;;;;;;;7.10;4.43;;;5.20;99.90;;;;;;5148846;27;20047;-71
2022/04/02 08:15:46;;;;;;;8.52;4.13;;;5.30;99.90;;;;;;5148351;27;20155;-71
2022/04/02 08:18:16;;;;;;;6.72;3.42;;;5.20;99.90;;;;;;5148775;27;20147;-71
2022/04/02 08:20:43;;;;;;;5.47;3.40;;;5.40;99.90;;;;;;5148644;27;20054;-71
2022/04/02 08:23:10;;;;;;;6.18;3.78;;;5.60;99.90;;;;;;5170136;27;20046;-71
2022/04/02 08:25:38;;;;;;;6.15;3.70;;;5.60;99.90;;;;;;5153696;27;20084;-71
2022/04/02 08:28:18;;;;;;;9.20;3.72;;;5.80;99.90;;;;;;5148336;27;20047;-71
2022/04/02 08:31:21;;;;;;;6.80;4.00;;;5.90;99.90;;;;;;5140218;27;20062;-70
2022/04/02 08:34:04;;;;;;;5.78;3.33;;;6.00;99.90;;;;;;5127057;27;20039;-71
2022/04/02 08:36:47;;;;;;;6.22;3.63;;;6.20;99.90;;;;;;5127343;27;20183;-72
2022/04/02 08:39:26;;;;;;;5.95;3.17;;;6.20;99.90;;;;;;5145701;27;20419;-73
2022/04/02 08:42:10;;;;;;;7.13;3.20;;;6.20;99.90;;;;;;5122208;27;20119;-67
2022/04/02 08:45:04;;;;;;;7.60;3.35;;;6.30;99.90;;;;;;5126758;27;20075;-76
2022/04/02 08:47:29;;;;;;;9.48;4.43;;;6.60;99.90;;;;;;5126474;27;20062;-77
2022/04/02 08:50:10;;;;;;;5.97;2.85;;;6.80;99.90;;;;;;5125975;27;20047;-72
2022/04/02 08:52:38;;;;;;;;;;;6.80;99.90;;;;;;5127819;27;20411;-74
2022/04/02 08:55:14;;;;;;;8.48;4.65;;;6.80;99.90;;;;;;5128568;27;20006;-71
2022/04/02 08:57:54;;;;;;;8.50;4.80;;;6.90;99.90;;;;;;5126364;27;20038;-73
2022/04/02 09:00:25;;;;;;;8.68;4.95;;;6.70;99.90;;;;;;5125912;27;20043;-73
2022/04/02 09:02:54;;;;;;;4.80;3.13;;;6.40;99.90;;;;;;5122990;27;20453;-75
2022/04/02 09:05:58;;;;;;;11.77;7.20;;;6.50;99.90;;;;;;5126748;27;20100;-71
2022/04/02 09:08:54;;;;;;;9.02;3.63;;;6.50;99.90;;;;;;5145915;27;20039;-76
2022/04/02 09:11:59;;;;;;;5.68;2.97;;;6.60;99.90;;;;;;5140717;27;20543;-75
2022/04/02 09:14:37;;;;;;;7.10;2.85;;;6.60;99.90;;;;;;5124615;27;20047;-74
2022/04/02 09:17:36;;;;;;;4.93;3.13;;;6.60;99.90;;;;;;5109410;27;20038;-75
2022/04/02 09:20:41;;;;;;;4.32;2.60;;;6.60;99.90;;;;;;5125889;27;20126;-71
2022/04/02 09:23:30;;;;;;;6.30;2.60;;;6.50;99.90;;;;;;5117686;27;20118;-67
2022/04/02 09:26:02;;;;;;;4.03;2.33;;;6.40;99.90;;;;;;5144108;27;20051;-67
2022/04/02 09:28:54;;;;;;;8.38;3.20;;;6.30;99.90;;;;;;5144401;27;20054;-67
2022/04/02 09:31:21;;;;;;;8.02;2.60;;;6.20;99.90;;;;;;5106198;27;20069;-73
2022/04/02 09:34:05;;;;;;;4.82;2.60;;;6.10;99.90;;;;;;5133885;27;20043;-73
2022/04/02 09:37:20;;;;;;;7.75;2.60;;;6.20;99.90;;;;;;5086681;27;20050;-69
2022/04/02 09:40:11;;;;;;;5.25;2.55;;;5.90;99.90;;;;;;5079089;27;20047;-72
2022/04/02 09:42:43;;;;;;;3.92;2.75;;;5.90;99.90;;;;;;5140691;27;20047;-72
2022/04/02 09:45:14;;;;;;;5.70;2.60;;;6.00;99.90;;;;;;5104665;28;20047;-73
2022/04/02 09:47:54;;;;;;;6.22;2.40;;;5.60;99.90;;;;;;5118922;27;20054;-73
2022/04/02 09:50:24;;;;;;;6.20;2.83;;;5.40;99.90;;;;;;5109115;28;20051;-73
2022/04/02 09:52:58;;;;;;;4.75;2.03;;;5.40;99.90;;;;;;5120353;28;20043;-73
2022/04/02 09:55:27;;;;;;;3.90;2.05;;;5.50;99.90;;;;;;5110185;28;20055;-71
2022/04/02 09:58:32;;;;;;;2.97;1.90;;;5.50;99.90;;;;;;5119806;28;20039;-77
2022/04/02 10:01:02;;;;;;;3.80;1.70;;;5.50;99.90;;;;;;5045237;28;20075;-74
2022/04/02 10:03:28;;;;;;;4.18;2.20;;;5.70;99.90;;;;;;5056017;28;20083;-72
2022/04/02 10:06:21;;;;;;;3.15;1.98;;;5.90;99.90;;;;;;5043726;28;20044;-71
2022/04/02 10:09:10;;;;;;;5.57;1.90;;;6.00;99.90;;;;;;5054034;28;20044;-74
2022/04/02 10:11:52;;;;;;;3.00;2.05;;;6.00;99.90;;;;;;5055550;28;20067;-71
2022/04/02 10:14:23;;;;;;;4.22;1.77;;;6.00;99.90;;;;;;5036509;28;20100;-71
2022/04/02 10:16:52;;;;;;;4.00;1.88;;;6.00;99.90;;;;;;5040127;28;20826;-69
2022/04/02 10:19:19;;;;;;;3.15;1.80;;;6.20;99.90;;;;;;5026195;28;20063;-70
2022/04/02 10:21:50;;;;;;;5.20;2.17;;;6.10;99.90;;;;;;5054951;28;20126;-75
2022/04/02 10:24:20;;;;;;;3.13;1.85;;;6.00;99.90;;;;;;5047472;28;20057;-75
2022/04/02 10:26:49;;;;;;;6.28;2.50;;;6.10;99.90;;;;;;5058482;28;20071;-73
2022/04/02 10:29:31;;;;;;;3.53;2.20;;;6.00;99.90;;;;;;5059137;28;20439;-68
2022/04/02 10:32:01;;;;;;;2.80;1.90;;;5.90;99.90;;;;;;5048953;28;20110;-73
2022/04/02 10:34:53;;;;;;;4.97;2.55;;;6.10;99.90;;;;;;5062616;28;20052;-81
2022/04/02 10:37:21;;;;;;;3.50;2.10;;;6.40;99.90;;;;;;5090324;27;20078;-74
2022/04/02 10:39:56;;;;;;;5.78;2.30;;;6.60;99.90;;;;;;5122875;27;20039;-73
2022/04/02 10:42:39;;;;;;;5.45;2.20;;;6.60;99.90;;;;;;5117500;27;20050;-75
2022/04/02 10:45:10;;;;;;;6.57;2.33;;;6.70;99.90;;;;;;5114707;27;20095;-72
2022/04/02 10:47:47;;;;;;;5.35;1.80;;;6.60;99.90;;;;;;5143471;27;20076;-74
2022/04/02 10:50:18;;;;;;;4.95;2.75;;;6.40;99.90;;;;;;5117130;27;20139;-74
2022/04/02 10:52:47;;;;;;;6.72;2.25;;;6.30;99.90;;;;;;5124721;27;20035;-73
2022/04/02 10:55:15;;;;;;;5.50;2.90;;;6.30;99.90;;;;;;5131910;27;20046;-73
2022/04/02 10:57:41;;;;;;;8.13;3.10;;;6.20;99.90;;;;;;5142981;27;20047;-72
2022/04/02 11:00:09;;;;;;;4.47;2.80;;;5.90;99.90;;;;;;5131550;27;20043;-73
2022/04/02 11:02:42;;;;;;;5.25;2.88;;;5.70;99.90;;;;;;5141017;27;20041;-71
2022/04/02 11:05:14;;;;;;;7.18;2.40;;;5.60;99.90;;;;;;5130423;27;20050;-73
2022/04/02 11:07:49;;;;;;;6.95;2.60;;;5.50;99.90;;;;;;5142000;27;20046;-71
2022/04/02 11:10:21;;;;;;;5.38;2.75;;;5.70;99.90;;;;;;5128454;27;20054;-69
2022/04/02 11:12:49;;;;;;;3.70;2.20;;;5.90;99.90;;;;;;5139293;27;20542;-70
2022/04/02 11:15:27;;;;;;;4.53;2.40;;;5.90;99.90;;;;;;5133016;27;20089;-70
2022/04/02 11:17:57;;;;;;;5.30;1.80;;;5.90;99.90;;;;;;5160271;27;20038;-66
2022/04/02 11:20:28;;;;;;;2.78;1.98;;;6.10;99.90;;;;;;5132354;27;20053;-68
2022/04/02 11:23:02;;;;;;;5.03;2.45;;;6.20;99.90;;;;;;5134763;27;20102;-67
2022/04/02 11:25:35;;;;;;;3.25;2.10;;;6.30;99.90;;;;;;5113883;27;20088;-71
2022/04/02 11:28:10;;;;;;;3.17;2.00;;;6.50;99.90;;;;;;5141323;27;20369;-70
2022/04/02 11:30:43;;;;;;;5.30;2.30;;;6.50;99.90;;;;;;5128638;27;20135;-73
2022/04/02 11:33:12;;;;;;;7.07;2.00;;;6.70;99.90;;;;;;5121527;27;20186;-70
2022/04/02 11:35:47;;;;;;;3.97;1.63;;;7.00;99.90;;;;;;5106865;27;20047;-69
2022/04/02 11:38:20;;;;;;;4.03;2.70;;;7.10;99.90;;;;;;5108392;27;20043;-72
2022/04/02 11:41:14;;;;;;;4.03;1.90;;;7.00;99.90;;;;;;5090555;27;20090;-72
2022/04/02 11:43:45;;;;;;;4.45;2.22;;;7.00;99.90;;;;;;5121128;27;20153;-72
2022/04/02 11:46:12;;;;;;;;;;;6.90;99.90;;;;;;5109708;27;20111;-72
2022/04/02 11:48:54;;;;;;;4.47;2.05;;;6.90;99.90;;;;;;5120165;27;19934;-72
2022/04/02 11:51:30;;;;;;;3.22;1.83;;;6.80;99.90;;;;;;5126895;27;20057;-72
2022/04/02 11:54:07;;;;;;;3.53;2.00;;;6.70;99.90;;;;;;5139071;27;20039;-71
2022/04/02 11:56:34;;;;;;;3.53;1.85;;;6.90;99.90;;;;;;5127665;27;20055;-71
2022/04/02 11:59:07;;;;;;;7.32;2.83;;;6.90;99.90;;;;;;5103814;27;20054;-72
2022/04/02 12:01:41;;;;;;;3.60;2.17;;;7.00;99.90;;;;;;5095736;28;20135;-71
2022/04/02 12:04:14;;;;;;;4.25;2.05;;;7.00;99.90;;;;;;5105521;27;20074;-71
2022/04/02 12:06:42;;;;;;;5.70;2.13;;;7.30;99.90;;;;;;5093155;27;20435;-70
2022/04/02 12:09:17;;;;;;;4.28;1.92;;;7.40;99.90;;;;;;5120343;27;20043;-71
2022/04/02 12:12:04;;;;;;;5.55;2.55;;;7.50;99.90;;;;;;5109646;27;20108;-72
2022/04/02 12:14:37;;;;;;;3.95;2.50;;;7.60;99.90;;;;;;5120087;27;20068;-71
2022/04/02 12:17:11;;;;;;;2.85;1.80;;;7.60;99.90;;;;;;5109697;27;20051;-72
2022/04/02 12:19:41;;;;;;;3.33;2.00;;;7.60;99.90;;;;;;5120422;27;20070;-72
2022/04/02 12:22:26;;;;;;;3.83;1.90;;;7.70;99.90;;;;;;5077021;27;20051;-73
2022/04/02 12:24:57;;;;;;;4.03;1.60;;;7.90;99.90;;;;;;5109097;27;20054;-73
2022/04/02 12:27:28;;;;;;;3.00;1.98;;;8.20;99.90;;;;;;5119146;27;20046;-80
2022/04/02 12:29:57;;;;;;;3.78;2.28;;;8.50;99.90;;;;;;5108765;27;20127;-73
2022/04/02 12:32:32;;;;;;;5.25;1.60;;;8.70;99.90;;;;;;5120825;27;20058;-73
2022/04/02 12:35:00;;;;;;;5.28;1.95;;;8.80;99.90;;;;;;5110962;27;20054;-75
2022/04/02 12:37:29;;;;;;;4.93;2.05;;;8.80;99.90;;;;;;5110209;27;20111;-74
2022/04/02 12:39:56;;;;;;;4.13;1.80;;;8.80;99.90;;;;;;5110585;27;20090;-74
2022/04/02 12:42:42;;;;;;;6.68;1.88;;;8.90;99.90;;;;;;5108924;27;20146;-74
2022/04/02 12:45:16;;;;;;;3.13;1.92;;;8.60;99.90;;;;;;5109325;27;20381;-73
2022/04/02 12:48:06;;;;;;;3.17;2.10;;;8.40;99.90;;;;;;5119708;27;20051;-74
2022/04/02 12:50:38;;;;;;;3.90;2.17;;;8.30;99.90;;;;;;5077056;27;20070;-74
2022/04/02 12:53:04;;;;;;;4.05;2.13;;;8.10;99.90;;;;;;5119779;27;20110;-73
2022/04/02 12:55:33;;;;;;;4.97;2.30;;;8.10;99.90;;;;;;5103802;27;20047;-73
2022/04/02 12:58:05;;;;;;;3.63;1.85;;;8.00;99.90;;;;;;5121048;27;20683;-74
2022/04/02 13:00:39;;;;;;;3.58;2.47;;;8.10;99.90;;;;;;5102644;28;20052;-74
2022/04/02 13:03:06;;;;;;;6.68;2.30;;;8.20;99.90;;;;;;5126070;27;20122;-74
2022/04/02 13:05:47;;;;;;;4.22;2.40;;;8.30;99.90;;;;;;5102564;28;20067;-74
2022/04/02 13:08:38;;;;;;;4.20;2.20;;;8.20;99.90;;;;;;5109724;27;20614;-74
2022/04/02 13:11:05;;;;;;;3.58;2.05;;;8.10;99.90;;;;;;5087746;28;20573;-74
2022/04/02 13:13:42;;;;;;;3.45;2.53;;;7.90;99.90;;;;;;5111782;27;20074;-74
2022/04/02 13:16:14;;;;;;;3.63;1.70;;;7.80;99.90;;;;;;5109027;27;20043;-74
2022/04/02 13:21:39;;;;;;;4.83;1.70;;;7.60;99.90;;;;;;5108212;27;20297;-74